Evening Star — WDG5061 — position and weather

sailwx.info

Track history (hours):
 
Tides and Currents Weather Stations Pressure Air Temp Water Temp Dewpoint Dewpoint Depression Visibility Wind Speed Wind Dir Waves Ship Positions

Evening Star

Owner: Tug Evening Star Corp, Melville, NY. More information available from US FCC via Universal Licensing System and Coast Guard Vessel Documentation Center.

Last reported at 2018-May-22 17:09 UTC. Time now 2018-May-22 19:20 UTC.
Position N 41°17' W 072°55'.

Length 34 m; draft 5.5 m.

Type: Towing. MMSI: 366834000.

Date/timePositionNaut miles runAvg speedWind from/ knotsBaromVisibWave heightAir tempDewpointWater temp
2018-May-22 17:09N 41°17' W 072°55'0 0.0
2018-May-22 17:00N 41°17' W 072°55'1 0.2
2018-May-22 12:31N 41°16' W 072°55'0 8.5
2018-May-22 12:30N 41°16' W 072°55'4 7.8
2018-May-22 11:59N 41°12' W 072°53'0 0.7
2018-May-22 11:29N 41°12' W 072°52'0 0.2
2018-May-22 10:55N 41°12' W 072°52'0 0.0
2018-May-22 03:46N 41°12' W 072°52'0 0.0
2018-May-22 03:28N 41°12' W 072°52'0 0.0
2018-May-22 02:56N 41°12' W 072°52'0 0.0
2018-May-22 02:30N 41°12' W 072°52'0 0.0
2018-May-22 01:59N 41°12' W 072°52'0 0.0
2018-May-22 01:30N 41°12' W 072°52'  
2018-May-19 10:48N 40°46' W 073°57'2 6.5
2018-May-19 10:30N 40°44' W 073°58'3 6.0
2018-May-19 10:00N 40°42' W 074°00'3 6.5
2018-May-19 09:30N 40°39' W 074°02'1 1.3
2018-May-19 09:00N 40°38' W 074°03'0 0.1
2018-May-19 08:30N 40°38' W 074°03'2 3.6
2018-May-19 08:00N 40°39' W 074°05'5 0.2
2018-May-17 22:27N 40°38' W 074°12'4 8.8
2018-May-17 22:00N 40°39' W 074°07'3 6.8
2018-May-17 21:30N 40°39' W 074°03'0 0.0
2018-May-17 21:00N 40°39' W 074°03'0 0.0
2018-May-17 20:30N 40°39' W 074°03'0 0.0
2018-May-17 20:00N 40°39' W 074°03'3 6.1
2018-May-17 19:27N 40°39' W 074°07'3 5.8
2018-May-17 19:00N 40°39' W 074°04'1 1.6
2018-May-17 18:30N 40°39' W 074°03'0 0.0
2018-May-17 17:59N 40°39' W 074°03'0 0.0
2018-May-17 17:25N 40°39' W 074°03'0 0.0
2018-May-17 17:00N 40°39' W 074°03'0 0.2
2018-May-17 16:30N 40°39' W 074°03'0 0.1
2018-May-17 16:00N 40°39' W 074°03'0 0.0
2018-May-17 15:30N 40°39' W 074°03'0 0.0
2018-May-17 15:00N 40°39' W 074°03'0 0.0
2018-May-17 14:30N 40°39' W 074°03'0 0.0
2018-May-17 14:00N 40°39' W 074°03'0 0.0
2018-May-17 13:30N 40°39' W 074°03'0 0.0
2018-May-17 13:00N 40°39' W 074°03'0 0.1
2018-May-17 12:30N 40°39' W 074°03'0 0.1
2018-May-17 12:00N 40°39' W 074°03'0 0.0
2018-May-17 11:30N 40°39' W 074°03'0 0.1
2018-May-17 11:00N 40°39' W 074°03'0 0.1
2018-May-17 10:30N 40°39' W 074°03'0 0.0
2018-May-17 10:00N 40°39' W 074°03'0 0.0
2018-May-17 09:30N 40°39' W 074°03'0 0.0
2018-May-17 08:59N 40°39' W 074°03'0 0.0
2018-May-17 08:30N 40°39' W 074°03'0 0.0
2018-May-17 08:00N 40°39' W 074°03'0 0.0
2018-May-17 07:30N 40°39' W 074°03'0 0.0
2018-May-17 07:00N 40°39' W 074°03'0 0.0
2018-May-17 06:30N 40°39' W 074°03'0 0.0
2018-May-17 05:58N 40°39' W 074°03'0 0.0
2018-May-17 05:30N 40°39' W 074°03'0 0.0
2018-May-17 05:00N 40°39' W 074°03'0 0.0
2018-May-17 04:29N 40°39' W 074°03'0 0.1
2018-May-17 04:00N 40°39' W 074°03'0 0.2
2018-May-17 03:30N 40°39' W 074°03'0 0.1
2018-May-17 03:00N 40°39' W 074°03'0 0.0
2018-May-17 02:30N 40°39' W 074°03'0 0.0
2018-May-17 02:00N 40°39' W 074°03'1 1.3
2018-May-17 01:31N 40°39' W 074°03'3 5.6
2018-May-17 01:00N 40°39' W 074°07'0 0.0
2018-May-17 00:30N 40°39' W 074°07'0 0.0
2018-May-17 00:00N 40°39' W 074°07'0 0.0
2018-May-16 23:30N 40°39' W 074°07'1 2.1
2018-May-16 23:00N 40°39' W 074°06'2 4.6
2018-May-16 22:30N 40°39' W 074°03'0 0.1
2018-May-16 22:00N 40°39' W 074°03'0 0.0
2018-May-16 21:30N 40°39' W 074°03'0 0.0
2018-May-16 20:52N 40°39' W 074°03'0 0.0
2018-May-16 20:29N 40°39' W 074°03'0 0.0
2018-May-16 19:59N 40°39' W 074°03'3 4.8
2018-May-16 19:28N 40°39' W 074°06'1 1.5
2018-May-16 18:53N 40°39' W 074°07'0 0.0
2018-May-16 18:30N 40°39' W 074°07'3 5.7
2018-May-16 17:59N 40°39' W 074°03'0 1.0
2018-May-16 17:30N 40°39' W 074°03'0 0.3
2018-May-16 17:00N 40°39' W 074°03'4 7.5
2018-May-16 16:30N 40°42' W 074°00'7 0.2
2018-May-15 01:00N 40°48' W 073°55'4 8.2
2018-May-15 00:31N 40°45' W 073°58'4 7.6
2018-May-15 00:01N 40°41' W 074°01'2 3.2
2018-May-14 23:31N 40°40' W 074°02'0 0.1
2018-May-14 23:01N 40°40' W 074°02'0 0.0
2018-May-14 22:30N 40°40' W 074°02'0 0.0
2018-May-14 22:01N 40°40' W 074°02'0 0.2
2018-May-14 21:30N 40°40' W 074°02'1 2.5
2018-May-14 21:00N 40°39' W 074°03'3 6.9
2018-May-14 20:30N 40°39' W 074°08'2 0.1
2018-May-14 02:16N 40°39' W 074°10'2 8.5
2018-May-14 02:00N 40°39' W 074°07'4 7.9
2018-May-14 01:31N 40°40' W 074°03'5 9.0
2018-May-14 01:00N 40°43' W 073°58'4 0.1
2018-May-12 18:01N 40°47' W 073°55'2 6.5
2018-May-12 17:46N 40°46' W 073°57'2 6.1
2018-May-12 17:31N 40°44' W 073°58'  
Track history (hours):
 
Tides and Currents Weather Stations Pressure Air Temp Water Temp Dewpoint Dewpoint Depression Visibility Wind Speed Wind Dir Waves Ship Positions

Evening Star

Owner: Tug Evening Star Corp, Melville, NY. More information available from US FCC via Universal Licensing System and Coast Guard Vessel Documentation Center.

Last reported at 2018-May-22 17:09 UTC. Time now 2018-May-22 19:20 UTC.
Position N 41°17' W 072°55'.

Length 34 m; draft 5.5 m.

Type: Towing. MMSI: 366834000.

Date/timePositionNaut miles runAvg speedWind from/ knotsBaromVisibWave heightAir tempDewpointWater temp
2018-May-22 17:09N 41°17' W 072°55'0 0.0
2018-May-22 17:00N 41°17' W 072°55'1 0.2
2018-May-22 12:31N 41°16' W 072°55'0 8.5
2018-May-22 12:30N 41°16' W 072°55'4 7.8
2018-May-22 11:59N 41°12' W 072°53'0 0.7
2018-May-22 11:29N 41°12' W 072°52'0 0.2
2018-May-22 10:55N 41°12' W 072°52'0 0.0
2018-May-22 03:46N 41°12' W 072°52'0 0.0
2018-May-22 03:28N 41°12' W 072°52'0 0.0
2018-May-22 02:56N 41°12' W 072°52'0 0.0
2018-May-22 02:30N 41°12' W 072°52'0 0.0
2018-May-22 01:59N 41°12' W 072°52'0 0.0
2018-May-22 01:30N 41°12' W 072°52'  
2018-May-19 10:48N 40°46' W 073°57'2 6.5
2018-May-19 10:30N 40°44' W 073°58'3 6.0
2018-May-19 10:00N 40°42' W 074°00'3 6.5
2018-May-19 09:30N 40°39' W 074°02'1 1.3
2018-May-19 09:00N 40°38' W 074°03'0 0.1
2018-May-19 08:30N 40°38' W 074°03'2 3.6
2018-May-19 08:00N 40°39' W 074°05'5 0.2
2018-May-17 22:27N 40°38' W 074°12'4 8.8
2018-May-17 22:00N 40°39' W 074°07'3 6.8
2018-May-17 21:30N 40°39' W 074°03'0 0.0
2018-May-17 21:00N 40°39' W 074°03'0 0.0
2018-May-17 20:30N 40°39' W 074°03'0 0.0
2018-May-17 20:00N 40°39' W 074°03'3 6.1
2018-May-17 19:27N 40°39' W 074°07'3 5.8
2018-May-17 19:00N 40°39' W 074°04'1 1.6
2018-May-17 18:30N 40°39' W 074°03'0 0.0
2018-May-17 17:59N 40°39' W 074°03'0 0.0
2018-May-17 17:25N 40°39' W 074°03'0 0.0
2018-May-17 17:00N 40°39' W 074°03'0 0.2
2018-May-17 16:30N 40°39' W 074°03'0 0.1
2018-May-17 16:00N 40°39' W 074°03'0 0.0
2018-May-17 15:30N 40°39' W 074°03'0 0.0
2018-May-17 15:00N 40°39' W 074°03'0 0.0
2018-May-17 14:30N 40°39' W 074°03'0 0.0
2018-May-17 14:00N 40°39' W 074°03'0 0.0
2018-May-17 13:30N 40°39' W 074°03'0 0.0
2018-May-17 13:00N 40°39' W 074°03'0 0.1
2018-May-17 12:30N 40°39' W 074°03'0 0.1
2018-May-17 12:00N 40°39' W 074°03'0 0.0
2018-May-17 11:30N 40°39' W 074°03'0 0.1
2018-May-17 11:00N 40°39' W 074°03'0 0.1
2018-May-17 10:30N 40°39' W 074°03'0 0.0
2018-May-17 10:00N 40°39' W 074°03'0 0.0
2018-May-17 09:30N 40°39' W 074°03'0 0.0
2018-May-17 08:59N 40°39' W 074°03'0 0.0
2018-May-17 08:30N 40°39' W 074°03'0 0.0
2018-May-17 08:00N 40°39' W 074°03'0 0.0
2018-May-17 07:30N 40°39' W 074°03'0 0.0
2018-May-17 07:00N 40°39' W 074°03'0 0.0
2018-May-17 06:30N 40°39' W 074°03'0 0.0
2018-May-17 05:58N 40°39' W 074°03'0 0.0
2018-May-17 05:30N 40°39' W 074°03'0 0.0
2018-May-17 05:00N 40°39' W 074°03'0 0.0
2018-May-17 04:29N 40°39' W 074°03'0 0.1
2018-May-17 04:00N 40°39' W 074°03'0 0.2
2018-May-17 03:30N 40°39' W 074°03'0 0.1
2018-May-17 03:00N 40°39' W 074°03'0 0.0
2018-May-17 02:30N 40°39' W 074°03'0 0.0
2018-May-17 02:00N 40°39' W 074°03'1 1.3
2018-May-17 01:31N 40°39' W 074°03'3 5.6
2018-May-17 01:00N 40°39' W 074°07'0 0.0
2018-May-17 00:30N 40°39' W 074°07'0 0.0
2018-May-17 00:00N 40°39' W 074°07'0 0.0
2018-May-16 23:30N 40°39' W 074°07'1 2.1
2018-May-16 23:00N 40°39' W 074°06'2 4.6
2018-May-16 22:30N 40°39' W 074°03'0 0.1
2018-May-16 22:00N 40°39' W 074°03'0 0.0
2018-May-16 21:30N 40°39' W 074°03'0 0.0
2018-May-16 20:52N 40°39' W 074°03'0 0.0
2018-May-16 20:29N 40°39' W 074°03'0 0.0
2018-May-16 19:59N 40°39' W 074°03'3 4.8
2018-May-16 19:28N 40°39' W 074°06'1 1.5
2018-May-16 18:53N 40°39' W 074°07'0 0.0
2018-May-16 18:30N 40°39' W 074°07'3 5.7
2018-May-16 17:59N 40°39' W 074°03'0 1.0
2018-May-16 17:30N 40°39' W 074°03'0 0.3
2018-May-16 17:00N 40°39' W 074°03'4 7.5
2018-May-16 16:30N 40°42' W 074°00'7 0.2
2018-May-15 01:00N 40°48' W 073°55'4 8.2
2018-May-15 00:31N 40°45' W 073°58'4 7.6
2018-May-15 00:01N 40°41' W 074°01'2 3.2
2018-May-14 23:31N 40°40' W 074°02'0 0.1
2018-May-14 23:01N 40°40' W 074°02'0 0.0
2018-May-14 22:30N 40°40' W 074°02'0 0.0
2018-May-14 22:01N 40°40' W 074°02'0 0.2
2018-May-14 21:30N 40°40' W 074°02'1 2.5
2018-May-14 21:00N 40°39' W 074°03'3 6.9
2018-May-14 20:30N 40°39' W 074°08'2 0.1
2018-May-14 02:16N 40°39' W 074°10'2 8.5
2018-May-14 02:00N 40°39' W 074°07'4 7.9
2018-May-14 01:31N 40°40' W 074°03'5 9.0
2018-May-14 01:00N 40°43' W 073°58'4 0.1
2018-May-12 18:01N 40°47' W 073°55'2 6.5
2018-May-12 17:46N 40°46' W 073°57'2 6.1
2018-May-12 17:31N 40°44' W 073°58'  

Dump ship's entire track history